sensor_id;sensor_type;location;lat;lon;timestamp;temperature;humidity
75931;DHT22;64609;47.052;15.462;2023-11-21T00:00:47;10.30;69.50
75931;DHT22;64609;47.052;15.462;2023-11-21T00:03:12;10.30;69.30
75931;DHT22;64609;47.052;15.462;2023-11-21T00:05:41;10.30;69.30
75931;DHT22;64609;47.052;15.462;2023-11-21T00:08:09;10.30;69.20
75931;DHT22;64609;47.052;15.462;2023-11-21T00:10:36;10.30;69.20
75931;DHT22;64609;47.052;15.462;2023-11-21T00:13:04;10.30;69.20
75931;DHT22;64609;47.052;15.462;2023-11-21T00:15:29;10.30;69.20
75931;DHT22;64609;47.052;15.462;2023-11-21T00:17:55;10.30;69.20
75931;DHT22;64609;47.052;15.462;2023-11-21T00:20:21;10.30;69.20
75931;DHT22;64609;47.052;15.462;2023-11-21T00:22:47;10.30;69.20
75931;DHT22;64609;47.052;15.462;2023-11-21T00:25:13;10.20;69.20
75931;DHT22;64609;47.052;15.462;2023-11-21T00:27:41;10.20;69.30
75931;DHT22;64609;47.052;15.462;2023-11-21T00:30:07;10.20;69.40
75931;DHT22;64609;47.052;15.462;2023-11-21T00:32:35;10.20;69.30
75931;DHT22;64609;47.052;15.462;2023-11-21T00:35:01;10.30;69.30
75931;DHT22;64609;47.052;15.462;2023-11-21T00:37:27;10.30;69.20
75931;DHT22;64609;47.052;15.462;2023-11-21T00:39:52;10.30;69.30
75931;DHT22;64609;47.052;15.462;2023-11-21T00:42:18;10.20;69.20
75931;DHT22;64609;47.052;15.462;2023-11-21T00:44:44;10.20;69.30
75931;DHT22;64609;47.052;15.462;2023-11-21T00:47:09;10.20;69.40
75931;DHT22;64609;47.052;15.462;2023-11-21T00:49:35;10.20;69.30
75931;DHT22;64609;47.052;15.462;2023-11-21T00:52:01;10.20;69.40
75931;DHT22;64609;47.052;15.462;2023-11-21T00:54:27;10.20;69.50
75931;DHT22;64609;47.052;15.462;2023-11-21T00:56:53;10.10;69.50
75931;DHT22;64609;47.052;15.462;2023-11-21T00:59:19;10.10;69.80
75931;DHT22;64609;47.052;15.462;2023-11-21T01:01:44;10.10;69.60
75931;DHT22;64609;47.052;15.462;2023-11-21T01:04:10;10.10;69.70
75931;DHT22;64609;47.052;15.462;2023-11-21T01:06:36;10.20;69.70
75931;DHT22;64609;47.052;15.462;2023-11-21T01:09:02;10.20;69.70
75931;DHT22;64609;47.052;15.462;2023-11-21T01:11:33;10.20;69.80
75931;DHT22;64609;47.052;15.462;2023-11-21T01:14:01;10.20;69.80
75931;DHT22;64609;47.052;15.462;2023-11-21T01:16:28;10.20;69.80
75931;DHT22;64609;47.052;15.462;2023-11-21T01:18:54;10.20;69.80
75931;DHT22;64609;47.052;15.462;2023-11-21T01:21:20;10.20;69.80
75931;DHT22;64609;47.052;15.462;2023-11-21T01:23:45;10.20;69.80
75931;DHT22;64609;47.052;15.462;2023-11-21T01:26:13;10.20;69.80
75931;DHT22;64609;47.052;15.462;2023-11-21T01:28:38;10.20;69.80
75931;DHT22;64609;47.052;15.462;2023-11-21T01:31:04;10.20;69.90
75931;DHT22;64609;47.052;15.462;2023-11-21T01:33:30;10.30;70.00
75931;DHT22;64609;47.052;15.462;2023-11-21T01:35:55;10.30;70.00
75931;DHT22;64609;47.052;15.462;2023-11-21T01:38:21;10.30;69.90
75931;DHT22;64609;47.052;15.462;2023-11-21T01:40:47;10.30;69.90
75931;DHT22;64609;47.052;15.462;2023-11-21T01:43:13;10.40;69.90
75931;DHT22;64609;47.052;15.462;2023-11-21T01:45:39;10.40;69.80
75931;DHT22;64609;47.052;15.462;2023-11-21T01:48:05;10.40;70.00
75931;DHT22;64609;47.052;15.462;2023-11-21T01:50:32;10.40;70.00
75931;DHT22;64609;47.052;15.462;2023-11-21T01:52:59;10.50;70.00
75931;DHT22;64609;47.052;15.462;2023-11-21T01:55:25;10.50;70.00
75931;DHT22;64609;47.052;15.462;2023-11-21T01:57:52;10.50;71.00
75931;DHT22;64609;47.052;15.462;2023-11-21T02:00:18;10.50;70.00
75931;DHT22;64609;47.052;15.462;2023-11-21T02:02:48;10.50;70.00
75931;DHT22;64609;47.052;15.462;2023-11-21T02:05:15;10.60;70.10
75931;DHT22;64609;47.052;15.462;2023-11-21T02:07:43;10.60;70.00
75931;DHT22;64609;47.052;15.462;2023-11-21T02:10:09;10.60;70.00
75931;DHT22;64609;47.052;15.462;2023-11-21T02:12:35;10.60;70.00
75931;DHT22;64609;47.052;15.462;2023-11-21T02:15:02;10.60;71.00
75931;DHT22;64609;47.052;15.462;2023-11-21T02:17:30;10.70;70.00
75931;DHT22;64609;47.052;15.462;2023-11-21T02:19:58;10.70;70.00
75931;DHT22;64609;47.052;15.462;2023-11-21T02:22:26;10.70;69.90
75931;DHT22;64609;47.052;15.462;2023-11-21T02:24:53;10.70;70.00
75931;DHT22;64609;47.052;15.462;2023-11-21T02:27:19;10.70;69.90
75931;DHT22;64609;47.052;15.462;2023-11-21T02:29:47;10.70;69.90
75931;DHT22;64609;47.052;15.462;2023-11-21T02:32:13;10.80;70.00
75931;DHT22;64609;47.052;15.462;2023-11-21T02:34:38;10.80;70.00
75931;DHT22;64609;47.052;15.462;2023-11-21T02:37:04;10.80;69.80
75931;DHT22;64609;47.052;15.462;2023-11-21T02:39:31;10.80;69.70
75931;DHT22;64609;47.052;15.462;2023-11-21T02:41:57;10.80;69.70
75931;DHT22;64609;47.052;15.462;2023-11-21T02:44:23;10.80;69.70
75931;DHT22;64609;47.052;15.462;2023-11-21T02:46:48;10.80;69.60
75931;DHT22;64609;47.052;15.462;2023-11-21T02:49:14;10.80;69.50
75931;DHT22;64609;47.052;15.462;2023-11-21T02:51:40;10.80;69.60
75931;DHT22;64609;47.052;15.462;2023-11-21T02:54:06;10.80;69.60
75931;DHT22;64609;47.052;15.462;2023-11-21T02:56:33;10.80;69.40
75931;DHT22;64609;47.052;15.462;2023-11-21T02:59:00;10.90;69.40
75931;DHT22;64609;47.052;15.462;2023-11-21T03:01:26;10.90;69.50
75931;DHT22;64609;47.052;15.462;2023-11-21T03:03:53;10.90;69.60
75931;DHT22;64609;47.052;15.462;2023-11-21T03:06:19;10.90;69.60
75931;DHT22;64609;47.052;15.462;2023-11-21T03:08:45;10.90;69.50
75931;DHT22;64609;47.052;15.462;2023-11-21T03:11:11;10.90;69.60
75931;DHT22;64609;47.052;15.462;2023-11-21T03:13:39;11.00;69.30
75931;DHT22;64609;47.052;15.462;2023-11-21T03:16:08;11.00;69.20
75931;DHT22;64609;47.052;15.462;2023-11-21T03:18:34;11.00;69.10
75931;DHT22;64609;47.052;15.462;2023-11-21T03:20:59;11.00;69.30
75931;DHT22;64609;47.052;15.462;2023-11-21T03:23:25;11.00;69.30
75931;DHT22;64609;47.052;15.462;2023-11-21T03:25:50;11.00;69.10
75931;DHT22;64609;47.052;15.462;2023-11-21T03:28:16;11.00;69.20
75931;DHT22;64609;47.052;15.462;2023-11-21T03:30:42;11.00;69.30
75931;DHT22;64609;47.052;15.462;2023-11-21T03:33:07;11.10;69.50
75931;DHT22;64609;47.052;15.462;2023-11-21T03:35:33;11.00;69.50
75931;DHT22;64609;47.052;15.462;2023-11-21T03:37:58;11.10;69.50
75931;DHT22;64609;47.052;15.462;2023-11-21T03:40:24;11.00;69.10
75931;DHT22;64609;47.052;15.462;2023-11-21T03:42:50;11.10;69.10
75931;DHT22;64609;47.052;15.462;2023-11-21T03:45:16;11.10;69.10
75931;DHT22;64609;47.052;15.462;2023-11-21T03:47:42;11.10;69.10
75931;DHT22;64609;47.052;15.462;2023-11-21T03:50:08;11.10;69.30
75931;DHT22;64609;47.052;15.462;2023-11-21T03:52:37;11.10;69.20
75931;DHT22;64609;47.052;15.462;2023-11-21T03:55:03;11.10;69.40
75931;DHT22;64609;47.052;15.462;2023-11-21T03:57:29;11.10;69.30
75931;DHT22;64609;47.052;15.462;2023-11-21T03:59:54;11.10;69.30
75931;DHT22;64609;47.052;15.462;2023-11-21T04:02:20;11.10;69.60
75931;DHT22;64609;47.052;15.462;2023-11-21T04:04:46;11.10;69.80
75931;DHT22;64609;47.052;15.462;2023-11-21T04:07:11;11.10;70.00
75931;DHT22;64609;47.052;15.462;2023-11-21T04:09:39;11.10;70.20
75931;DHT22;64609;47.052;15.462;2023-11-21T04:12:05;11.00;70.20
75931;DHT22;64609;47.052;15.462;2023-11-21T04:14:31;11.10;70.30
75931;DHT22;64609;47.052;15.462;2023-11-21T04:16:57;11.10;70.30
75931;DHT22;64609;47.052;15.462;2023-11-21T04:19:22;11.20;70.30
75931;DHT22;64609;47.052;15.462;2023-11-21T04:21:48;11.10;70.10
75931;DHT22;64609;47.052;15.462;2023-11-21T04:24:14;11.10;70.20
75931;DHT22;64609;47.052;15.462;2023-11-21T04:26:40;11.10;70.20
75931;DHT22;64609;47.052;15.462;2023-11-21T04:29:05;11.10;70.30
75931;DHT22;64609;47.052;15.462;2023-11-21T04:31:31;11.00;70.40
75931;DHT22;64609;47.052;15.462;2023-11-21T04:33:57;11.00;70.80
75931;DHT22;64609;47.052;15.462;2023-11-21T04:36:23;11.00;72.00
75931;DHT22;64609;47.052;15.462;2023-11-21T04:38:48;11.00;71.30
75931;DHT22;64609;47.052;15.462;2023-11-21T04:41:14;11.00;71.30
75931;DHT22;64609;47.052;15.462;2023-11-21T04:43:40;11.00;71.40
75931;DHT22;64609;47.052;15.462;2023-11-21T04:46:05;11.00;71.60
75931;DHT22;64609;47.052;15.462;2023-11-21T04:48:32;11.00;71.60
75931;DHT22;64609;47.052;15.462;2023-11-21T04:50:58;11.00;71.60
75931;DHT22;64609;47.052;15.462;2023-11-21T04:53:24;11.00;71.60
75931;DHT22;64609;47.052;15.462;2023-11-21T04:55:49;11.00;72.60
75931;DHT22;64609;47.052;15.462;2023-11-21T04:58:15;11.00;71.70
75931;DHT22;64609;47.052;15.462;2023-11-21T05:00:40;11.00;71.70
75931;DHT22;64609;47.052;15.462;2023-11-21T05:03:06;11.00;71.70
75931;DHT22;64609;47.052;15.462;2023-11-21T05:05:32;11.00;71.70
75931;DHT22;64609;47.052;15.462;2023-11-21T05:07:59;11.00;71.70
75931;DHT22;64609;47.052;15.462;2023-11-21T05:10:25;11.00;71.70
75931;DHT22;64609;47.052;15.462;2023-11-21T05:12:50;10.90;71.80
75931;DHT22;64609;47.052;15.462;2023-11-21T05:15:16;10.90;72.00
75931;DHT22;64609;47.052;15.462;2023-11-21T05:17:43;10.90;72.30
75931;DHT22;64609;47.052;15.462;2023-11-21T05:20:19;10.90;72.20
75931;DHT22;64609;47.052;15.462;2023-11-21T05:22:49;10.90;72.30
75931;DHT22;64609;47.052;15.462;2023-11-21T05:25:15;10.90;72.40
75931;DHT22;64609;47.052;15.462;2023-11-21T05:27:40;10.90;72.40
75931;DHT22;64609;47.052;15.462;2023-11-21T05:30:07;10.90;72.40
75931;DHT22;64609;47.052;15.462;2023-11-21T05:32:37;10.90;72.40
75931;DHT22;64609;47.052;15.462;2023-11-21T05:35:03;10.80;72.40
75931;DHT22;64609;47.052;15.462;2023-11-21T05:37:29;10.90;72.40
75931;DHT22;64609;47.052;15.462;2023-11-21T05:39:55;10.90;72.60
75931;DHT22;64609;47.052;15.462;2023-11-21T05:42:22;10.90;72.60
75931;DHT22;64609;47.052;15.462;2023-11-21T05:44:49;10.90;72.40
75931;DHT22;64609;47.052;15.462;2023-11-21T05:47:14;10.80;72.40
75931;DHT22;64609;47.052;15.462;2023-11-21T05:49:40;10.80;72.60
75931;DHT22;64609;47.052;15.462;2023-11-21T05:52:06;10.80;72.90
75931;DHT22;64609;47.052;15.462;2023-11-21T05:54:32;10.80;73.00
75931;DHT22;64609;47.052;15.462;2023-11-21T05:56:58;10.90;73.10
75931;DHT22;64609;47.052;15.462;2023-11-21T05:59:24;10.90;73.10
75931;DHT22;64609;47.052;15.462;2023-11-21T06:01:50;10.90;73.00
75931;DHT22;64609;47.052;15.462;2023-11-21T06:04:15;10.90;73.10
75931;DHT22;64609;47.052;15.462;2023-11-21T06:06:41;10.80;73.20
75931;DHT22;64609;47.052;15.462;2023-11-21T06:09:07;10.80;73.20
75931;DHT22;64609;47.052;15.462;2023-11-21T06:11:35;10.90;73.10
75931;DHT22;64609;47.052;15.462;2023-11-21T06:14:00;10.90;73.90
75931;DHT22;64609;47.052;15.462;2023-11-21T06:16:26;10.90;73.10
75931;DHT22;64609;47.052;15.462;2023-11-21T06:18:53;10.80;73.20
75931;DHT22;64609;47.052;15.462;2023-11-21T06:21:19;10.80;73.30
75931;DHT22;64609;47.052;15.462;2023-11-21T06:23:44;10.80;73.30
75931;DHT22;64609;47.052;15.462;2023-11-21T06:26:10;10.80;73.20
75931;DHT22;64609;47.052;15.462;2023-11-21T06:28:36;10.80;73.20
75931;DHT22;64609;47.052;15.462;2023-11-21T06:31:02;10.80;73.20
75931;DHT22;64609;47.052;15.462;2023-11-21T06:33:33;10.90;73.20
75931;DHT22;64609;47.052;15.462;2023-11-21T06:36:00;10.90;73.20
75931;DHT22;64609;47.052;15.462;2023-11-21T06:38:28;10.80;73.10
75931;DHT22;64609;47.052;15.462;2023-11-21T06:40:56;10.80;73.20
75931;DHT22;64609;47.052;15.462;2023-11-21T06:43:23;10.90;73.40
75931;DHT22;64609;47.052;15.462;2023-11-21T06:45:49;10.90;73.40
75931;DHT22;64609;47.052;15.462;2023-11-21T06:48:14;10.90;73.50
75931;DHT22;64609;47.052;15.462;2023-11-21T06:50:40;10.90;73.60
75931;DHT22;64609;47.052;15.462;2023-11-21T06:53:07;10.90;73.50
75931;DHT22;64609;47.052;15.462;2023-11-21T06:55:33;10.90;73.50
75931;DHT22;64609;47.052;15.462;2023-11-21T06:57:59;10.90;73.50
75931;DHT22;64609;47.052;15.462;2023-11-21T07:00:25;11.00;73.50
75931;DHT22;64609;47.052;15.462;2023-11-21T07:02:53;11.00;73.40
75931;DHT22;64609;47.052;15.462;2023-11-21T07:05:20;11.00;73.50
75931;DHT22;64609;47.052;15.462;2023-11-21T07:07:47;11.00;73.70
75931;DHT22;64609;47.052;15.462;2023-11-21T07:10:13;11.00;73.80
75931;DHT22;64609;47.052;15.462;2023-11-21T07:12:39;11.00;73.60
75931;DHT22;64609;47.052;15.462;2023-11-21T07:15:06;11.00;73.80
75931;DHT22;64609;47.052;15.462;2023-11-21T07:17:37;11.00;73.90
75931;DHT22;64609;47.052;15.462;2023-11-21T07:20:03;11.00;74.20
75931;DHT22;64609;47.052;15.462;2023-11-21T07:22:29;11.00;74.20
75931;DHT22;64609;47.052;15.462;2023-11-21T07:24:55;11.10;74.30
75931;DHT22;64609;47.052;15.462;2023-11-21T07:27:22;11.10;74.30
75931;DHT22;64609;47.052;15.462;2023-11-21T07:29:47;11.20;74.30
75931;DHT22;64609;47.052;15.462;2023-11-21T07:32:14;11.20;74.20
75931;DHT22;64609;47.052;15.462;2023-11-21T07:34:40;11.30;74.20
75931;DHT22;64609;47.052;15.462;2023-11-21T07:37:06;11.30;74.30
75931;DHT22;64609;47.052;15.462;2023-11-21T07:39:32;11.30;74.30
75931;DHT22;64609;47.052;15.462;2023-11-21T07:41:58;11.40;74.40
75931;DHT22;64609;47.052;15.462;2023-11-21T07:44:23;11.40;74.20
75931;DHT22;64609;47.052;15.462;2023-11-21T07:46:49;11.40;74.40
75931;DHT22;64609;47.052;15.462;2023-11-21T07:49:15;11.50;74.50
75931;DHT22;64609;47.052;15.462;2023-11-21T07:51:43;11.50;74.50
75931;DHT22;64609;47.052;15.462;2023-11-21T07:54:09;11.60;74.50
75931;DHT22;64609;47.052;15.462;2023-11-21T07:56:35;11.60;74.60
75931;DHT22;64609;47.052;15.462;2023-11-21T07:59:01;11.60;74.60
75931;DHT22;64609;47.052;15.462;2023-11-21T08:01:26;11.70;74.80
75931;DHT22;64609;47.052;15.462;2023-11-21T08:03:54;11.70;75.20
75931;DHT22;64609;47.052;15.462;2023-11-21T08:06:23;11.80;75.20
75931;DHT22;64609;47.052;15.462;2023-11-21T08:08:49;11.90;75.20
75931;DHT22;64609;47.052;15.462;2023-11-21T08:11:15;12.00;75.10
75931;DHT22;64609;47.052;15.462;2023-11-21T08:13:40;12.10;75.30
75931;DHT22;64609;47.052;15.462;2023-11-21T08:16:06;12.20;75.30
75931;DHT22;64609;47.052;15.462;2023-11-21T08:18:32;12.30;75.10
75931;DHT22;64609;47.052;15.462;2023-11-21T08:20:59;12.30;74.80
75931;DHT22;64609;47.052;15.462;2023-11-21T08:23:26;12.30;74.60
75931;DHT22;64609;47.052;15.462;2023-11-21T08:25:54;12.40;74.60
75931;DHT22;64609;47.052;15.462;2023-11-21T08:28:21;12.40;74.90
75931;DHT22;64609;47.052;15.462;2023-11-21T08:30:52;12.40;74.90
75931;DHT22;64609;47.052;15.462;2023-11-21T08:33:18;12.50;74.80
75931;DHT22;64609;47.052;15.462;2023-11-21T08:35:44;12.50;74.90
75931;DHT22;64609;47.052;15.462;2023-11-21T08:38:11;12.60;74.80
75931;DHT22;64609;47.052;15.462;2023-11-21T08:40:37;12.70;74.70
75931;DHT22;64609;47.052;15.462;2023-11-21T08:43:03;12.80;74.60
75931;DHT22;64609;47.052;15.462;2023-11-21T08:45:33;12.90;74.40
75931;DHT22;64609;47.052;15.462;2023-11-21T08:48:00;12.90;74.20
75931;DHT22;64609;47.052;15.462;2023-11-21T08:50:25;13.00;74.40
75931;DHT22;64609;47.052;15.462;2023-11-21T08:52:51;13.00;74.50
75931;DHT22;64609;47.052;15.462;2023-11-21T08:55:17;13.10;74.40
75931;DHT22;64609;47.052;15.462;2023-11-21T08:57:44;13.10;74.40
75931;DHT22;64609;47.052;15.462;2023-11-21T09:00:11;13.10;74.20
75931;DHT22;64609;47.052;15.462;2023-11-21T09:02:38;13.20;74.30
75931;DHT22;64609;47.052;15.462;2023-11-21T09:05:05;13.20;74.20
75931;DHT22;64609;47.052;15.462;2023-11-21T09:07:31;13.30;74.00
75931;DHT22;64609;47.052;15.462;2023-11-21T09:09:57;13.40;73.90
75931;DHT22;64609;47.052;15.462;2023-11-21T09:12:22;13.50;73.70
75931;DHT22;64609;47.052;15.462;2023-11-21T09:14:50;13.60;73.80
75931;DHT22;64609;47.052;15.462;2023-11-21T09:17:16;13.60;73.60
75931;DHT22;64609;47.052;15.462;2023-11-21T09:19:42;13.70;73.30
75931;DHT22;64609;47.052;15.462;2023-11-21T09:22:10;13.70;73.20
75931;DHT22;64609;47.052;15.462;2023-11-21T09:24:36;13.80;72.90
75931;DHT22;64609;47.052;15.462;2023-11-21T09:27:03;13.80;72.90
75931;DHT22;64609;47.052;15.462;2023-11-21T09:29:30;13.80;72.50
75931;DHT22;64609;47.052;15.462;2023-11-21T09:31:57;13.80;72.30
75931;DHT22;64609;47.052;15.462;2023-11-21T09:34:25;13.90;72.20
75931;DHT22;64609;47.052;15.462;2023-11-21T09:36:51;13.90;72.10
75931;DHT22;64609;47.052;15.462;2023-11-21T09:39:17;13.90;71.80
75931;DHT22;64609;47.052;15.462;2023-11-21T09:41:55;14.00;70.80
75931;DHT22;64609;47.052;15.462;2023-11-21T09:44:34;13.90;70.40
75931;DHT22;64609;47.052;15.462;2023-11-21T09:47:01;13.90;70.50
75931;DHT22;64609;47.052;15.462;2023-11-21T09:49:28;13.90;70.60
75931;DHT22;64609;47.052;15.462;2023-11-21T09:51:55;14.00;70.50
75931;DHT22;64609;47.052;15.462;2023-11-21T09:54:25;13.90;69.80
75931;DHT22;64609;47.052;15.462;2023-11-21T09:56:50;13.90;69.60
75931;DHT22;64609;47.052;15.462;2023-11-21T09:59:16;13.80;70.60
75931;DHT22;64609;47.052;15.462;2023-11-21T10:01:42;13.80;69.90
75931;DHT22;64609;47.052;15.462;2023-11-21T10:04:09;13.80;69.90
75931;DHT22;64609;47.052;15.462;2023-11-21T10:06:39;13.90;70.10
75931;DHT22;64609;47.052;15.462;2023-11-21T10:09:10;13.90;70.20
75931;DHT22;64609;47.052;15.462;2023-11-21T10:11:40;13.90;69.60
75931;DHT22;64609;47.052;15.462;2023-11-21T10:14:07;13.80;68.90
75931;DHT22;64609;47.052;15.462;2023-11-21T10:16:36;13.80;69.50
75931;DHT22;64609;47.052;15.462;2023-11-21T10:19:03;13.80;68.90
75931;DHT22;64609;47.052;15.462;2023-11-21T10:21:30;13.80;69.10
75931;DHT22;64609;47.052;15.462;2023-11-21T10:23:55;13.80;69.20
75931;DHT22;64609;47.052;15.462;2023-11-21T10:26:22;13.80;68.90
75931;DHT22;64609;47.052;15.462;2023-11-21T10:28:59;13.80;68.90
75931;DHT22;64609;47.052;15.462;2023-11-21T10:31:27;13.80;68.30
75931;DHT22;64609;47.052;15.462;2023-11-21T10:33:53;13.80;68.20
75931;DHT22;64609;47.052;15.462;2023-11-21T10:36:26;13.80;68.40
75931;DHT22;64609;47.052;15.462;2023-11-21T10:38:53;13.80;69.50
75931;DHT22;64609;47.052;15.462;2023-11-21T10:41:20;13.80;68.70
75931;DHT22;64609;47.052;15.462;2023-11-21T10:43:46;13.80;68.40
75931;DHT22;64609;47.052;15.462;2023-11-21T10:46:12;13.70;68.10
75931;DHT22;64609;47.052;15.462;2023-11-21T10:48:38;13.70;68.40
75931;DHT22;64609;47.052;15.462;2023-11-21T10:51:07;13.70;68.70
75931;DHT22;64609;47.052;15.462;2023-11-21T10:53:42;13.70;68.80
75931;DHT22;64609;47.052;15.462;2023-11-21T10:56:09;13.80;68.90
75931;DHT22;64609;47.052;15.462;2023-11-21T10:58:43;13.80;68.80
75931;DHT22;64609;47.052;15.462;2023-11-21T11:01:09;13.80;69.40
75931;DHT22;64609;47.052;15.462;2023-11-21T11:03:41;13.80;68.60
75931;DHT22;64609;47.052;15.462;2023-11-21T11:06:07;13.80;68.90
75931;DHT22;64609;47.052;15.462;2023-11-21T11:08:39;13.80;68.80
75931;DHT22;64609;47.052;15.462;2023-11-21T11:11:05;13.80;68.80
75931;DHT22;64609;47.052;15.462;2023-11-21T11:13:31;13.90;68.50
75931;DHT22;64609;47.052;15.462;2023-11-21T11:16:01;13.80;68.50
75931;DHT22;64609;47.052;15.462;2023-11-21T11:18:33;13.80;68.50
75931;DHT22;64609;47.052;15.462;2023-11-21T11:21:11;13.80;68.80
75931;DHT22;64609;47.052;15.462;2023-11-21T11:32:05;13.90;68.30
75931;DHT22;64609;47.052;15.462;2023-11-21T11:34:46;14.00;68.00
75931;DHT22;64609;47.052;15.462;2023-11-21T11:37:12;14.00;67.80
75931;DHT22;64609;47.052;15.462;2023-11-21T11:39:42;14.00;67.70
75931;DHT22;64609;47.052;15.462;2023-11-21T11:42:13;14.00;67.70
75931;DHT22;64609;47.052;15.462;2023-11-21T11:47:32;13.90;67.40
75931;DHT22;64609;47.052;15.462;2023-11-21T11:50:09;14.00;67.50
75931;DHT22;64609;47.052;15.462;2023-11-21T11:52:46;14.00;67.40
75931;DHT22;64609;47.052;15.462;2023-11-21T11:55:13;14.00;68.40
75931;DHT22;64609;47.052;15.462;2023-11-21T11:57:41;14.00;67.20
75931;DHT22;64609;47.052;15.462;2023-11-21T12:00:14;14.00;67.30
75931;DHT22;64609;47.052;15.462;2023-11-21T12:02:49;14.00;67.20
75931;DHT22;64609;47.052;15.462;2023-11-21T12:05:16;14.00;67.20
75931;DHT22;64609;47.052;15.462;2023-11-21T12:07:44;14.00;67.20
75931;DHT22;64609;47.052;15.462;2023-11-21T12:10:19;14.00;67.40
75931;DHT22;64609;47.052;15.462;2023-11-21T12:12:52;14.00;67.60
75931;DHT22;64609;47.052;15.462;2023-11-21T12:15:19;14.00;66.80
75931;DHT22;64609;47.052;15.462;2023-11-21T12:17:45;14.00;66.80
75931;DHT22;64609;47.052;15.462;2023-11-21T12:20:18;14.00;66.50
75931;DHT22;64609;47.052;15.462;2023-11-21T12:23:18;14.10;66.30
75931;DHT22;64609;47.052;15.462;2023-11-21T12:25:39;14.10;66.30
75931;DHT22;64609;47.052;15.462;2023-11-21T12:28:06;14.10;66.50
75931;DHT22;64609;47.052;15.462;2023-11-21T12:30:34;14.10;66.60
75931;DHT22;64609;47.052;15.462;2023-11-21T12:33:04;14.10;66.10
75931;DHT22;64609;47.052;15.462;2023-11-21T12:35:33;14.10;66.00
75931;DHT22;64609;47.052;15.462;2023-11-21T12:38:03;14.10;65.90
75931;DHT22;64609;47.052;15.462;2023-11-21T12:40:29;14.10;65.60
75931;DHT22;64609;47.052;15.462;2023-11-21T12:42:57;14.10;65.70
75931;DHT22;64609;47.052;15.462;2023-11-21T12:45:25;14.20;66.00
75931;DHT22;64609;47.052;15.462;2023-11-21T12:47:57;14.20;65.90
75931;DHT22;64609;47.052;15.462;2023-11-21T12:50:26;14.20;66.30
75931;DHT22;64609;47.052;15.462;2023-11-21T12:53:08;14.20;66.00
75931;DHT22;64609;47.052;15.462;2023-11-21T12:55:35;14.20;65.90
75931;DHT22;64609;47.052;15.462;2023-11-21T12:58:08;14.30;65.70
75931;DHT22;64609;47.052;15.462;2023-11-21T13:00:45;14.20;65.60
75931;DHT22;64609;47.052;15.462;2023-11-21T13:03:13;14.20;66.10
75931;DHT22;64609;47.052;15.462;2023-11-21T13:05:43;14.20;66.10
75931;DHT22;64609;47.052;15.462;2023-11-21T13:08:12;14.20;66.20
75931;DHT22;64609;47.052;15.462;2023-11-21T13:10:43;14.20;66.30
75931;DHT22;64609;47.052;15.462;2023-11-21T13:13:12;14.20;66.30
75931;DHT22;64609;47.052;15.462;2023-11-21T13:18:18;14.10;66.50
75931;DHT22;64609;47.052;15.462;2023-11-21T13:20:44;14.10;66.20
75931;DHT22;64609;47.052;15.462;2023-11-21T13:23:12;14.10;65.60
75931;DHT22;64609;47.052;15.462;2023-11-21T13:25:38;14.10;65.80
75931;DHT22;64609;47.052;15.462;2023-11-21T13:28:07;14.10;66.40
75931;DHT22;64609;47.052;15.462;2023-11-21T13:30:33;14.10;66.70
75931;DHT22;64609;47.052;15.462;2023-11-21T13:33:00;14.10;66.80
75931;DHT22;64609;47.052;15.462;2023-11-21T13:35:35;14.10;66.70
75931;DHT22;64609;47.052;15.462;2023-11-21T13:38:13;14.10;66.80
75931;DHT22;64609;47.052;15.462;2023-11-21T13:40:40;14.20;66.40
75931;DHT22;64609;47.052;15.462;2023-11-21T13:43:13;14.20;66.00
75931;DHT22;64609;47.052;15.462;2023-11-21T13:45:40;14.10;65.90
75931;DHT22;64609;47.052;15.462;2023-11-21T13:48:06;14.10;66.20
75931;DHT22;64609;47.052;15.462;2023-11-21T13:50:39;14.10;66.30
75931;DHT22;64609;47.052;15.462;2023-11-21T13:53:11;14.10;66.50
75931;DHT22;64609;47.052;15.462;2023-11-21T13:55:51;14.20;66.30
75931;DHT22;64609;47.052;15.462;2023-11-21T13:58:21;14.10;66.30
75931;DHT22;64609;47.052;15.462;2023-11-21T14:01:05;14.10;66.40
75931;DHT22;64609;47.052;15.462;2023-11-21T14:03:38;14.10;66.60
75931;DHT22;64609;47.052;15.462;2023-11-21T14:06:15;14.10;66.40
75931;DHT22;64609;47.052;15.462;2023-11-21T14:08:48;14.00;66.40
75931;DHT22;64609;47.052;15.462;2023-11-21T14:11:13;14.00;66.70
75931;DHT22;64609;47.052;15.462;2023-11-21T14:13:43;13.90;66.90
75931;DHT22;64609;47.052;15.462;2023-11-21T14:16:12;13.90;67.00
75931;DHT22;64609;47.052;15.462;2023-11-21T14:18:39;13.90;67.10
75931;DHT22;64609;47.052;15.462;2023-11-21T14:21:18;13.80;67.10
75931;DHT22;64609;47.052;15.462;2023-11-21T14:23:43;13.80;67.00
75931;DHT22;64609;47.052;15.462;2023-11-21T14:26:11;13.80;67.50
75931;DHT22;64609;47.052;15.462;2023-11-21T14:28:40;13.70;67.50
75931;DHT22;64609;47.052;15.462;2023-11-21T14:31:07;13.70;67.50
75931;DHT22;64609;47.052;15.462;2023-11-21T14:33:33;13.70;67.70
75931;DHT22;64609;47.052;15.462;2023-11-21T14:35:59;13.60;67.70
75931;DHT22;64609;47.052;15.462;2023-11-21T14:38:24;13.60;68.00
75931;DHT22;64609;47.052;15.462;2023-11-21T14:40:50;13.50;68.30
75931;DHT22;64609;47.052;15.462;2023-11-21T14:43:15;13.50;68.30
75931;DHT22;64609;47.052;15.462;2023-11-21T14:45:42;13.50;68.50
75931;DHT22;64609;47.052;15.462;2023-11-21T14:48:08;13.40;68.40
75931;DHT22;64609;47.052;15.462;2023-11-21T14:50:42;13.40;68.60
75931;DHT22;64609;47.052;15.462;2023-11-21T14:53:09;13.40;68.90
75931;DHT22;64609;47.052;15.462;2023-11-21T14:55:37;13.30;69.10
75931;DHT22;64609;47.052;15.462;2023-11-21T14:58:15;13.30;69.20
75931;DHT22;64609;47.052;15.462;2023-11-21T15:00:45;13.20;69.40
75931;DHT22;64609;47.052;15.462;2023-11-21T15:03:11;13.20;69.40
75931;DHT22;64609;47.052;15.462;2023-11-21T15:06:02;13.10;69.30
75931;DHT22;64609;47.052;15.462;2023-11-21T15:08:51;13.00;69.60
75931;DHT22;64609;47.052;15.462;2023-11-21T15:11:32;13.00;69.80
75931;DHT22;64609;47.052;15.462;2023-11-21T15:13:58;12.90;70.00
75931;DHT22;64609;47.052;15.462;2023-11-21T15:16:24;12.90;70.20
75931;DHT22;64609;47.052;15.462;2023-11-21T15:18:52;12.80;70.20
75931;DHT22;64609;47.052;15.462;2023-11-21T15:21:19;12.80;70.20
75931;DHT22;64609;47.052;15.462;2023-11-21T15:23:46;12.80;70.20
75931;DHT22;64609;47.052;15.462;2023-11-21T15:26:12;12.80;70.40
75931;DHT22;64609;47.052;15.462;2023-11-21T15:28:38;12.70;70.60
75931;DHT22;64609;47.052;15.462;2023-11-21T15:31:04;12.70;71.00